sensor_id;sensor_type;location;lat;lon;timestamp;P1;durP1;ratioP1;P2;durP2;ratioP2
5608;SDS011;2826;51.354;9.588;2022-12-29T00:00:12;4.70;;;2.43;;
5608;SDS011;2826;51.354;9.588;2022-12-29T00:02:40;4.40;;;2.77;;
5608;SDS011;2826;51.354;9.588;2022-12-29T00:05:07;5.97;;;3.00;;
5608;SDS011;2826;51.354;9.588;2022-12-29T00:07:34;4.10;;;1.97;;
5608;SDS011;2826;51.354;9.588;2022-12-29T00:10:01;5.07;;;1.97;;
5608;SDS011;2826;51.354;9.588;2022-12-29T00:12:27;4.00;;;1.67;;
5608;SDS011;2826;51.354;9.588;2022-12-29T00:15:16;4.77;;;2.40;;
5608;SDS011;2826;51.354;9.588;2022-12-29T00:18:00;4.53;;;1.90;;
5608;SDS011;2826;51.354;9.588;2022-12-29T00:20:26;2.77;;;2.30;;
5608;SDS011;2826;51.354;9.588;2022-12-29T00:23:11;2.20;;;1.90;;
5608;SDS011;2826;51.354;9.588;2022-12-29T00:25:56;2.10;;;1.90;;
5608;SDS011;2826;51.354;9.588;2022-12-29T00:28:41;6.40;;;2.20;;
5608;SDS011;2826;51.354;9.588;2022-12-29T00:31:26;2.97;;;2.30;;
5608;SDS011;2826;51.354;9.588;2022-12-29T00:34:10;5.97;;;2.20;;
5608;SDS011;2826;51.354;9.588;2022-12-29T00:36:55;2.33;;;1.93;;
5608;SDS011;2826;51.354;9.588;2022-12-29T00:39:22;7.00;;;2.57;;
5608;SDS011;2826;51.354;9.588;2022-12-29T00:42:07;6.77;;;2.30;;
5608;SDS011;2826;51.354;9.588;2022-12-29T00:44:53;2.30;;;2.10;;
5608;SDS011;2826;51.354;9.588;2022-12-29T00:47:21;3.17;;;2.20;;
5608;SDS011;2826;51.354;9.588;2022-12-29T00:49:48;8.03;;;2.07;;
5608;SDS011;2826;51.354;9.588;2022-12-29T00:52:14;2.70;;;2.17;;
5608;SDS011;2826;51.354;9.588;2022-12-29T00:54:41;2.70;;;2.00;;
5608;SDS011;2826;51.354;9.588;2022-12-29T00:57:10;5.73;;;2.47;;
5608;SDS011;2826;51.354;9.588;2022-12-29T00:59:37;2.80;;;2.07;;
5608;SDS011;2826;51.354;9.588;2022-12-29T01:05:54;3.13;;;2.17;;
5608;SDS011;2826;51.354;9.588;2022-12-29T01:08:20;3.03;;;2.20;;
5608;SDS011;2826;51.354;9.588;2022-12-29T01:10:57;3.10;;;2.13;;
5608;SDS011;2826;51.354;9.588;2022-12-29T01:13:23;3.43;;;2.00;;
5608;SDS011;2826;51.354;9.588;2022-12-29T01:15:50;3.43;;;2.23;;
5608;SDS011;2826;51.354;9.588;2022-12-29T01:18:17;3.40;;;2.20;;
5608;SDS011;2826;51.354;9.588;2022-12-29T01:20:44;3.57;;;2.70;;
5608;SDS011;2826;51.354;9.588;2022-12-29T01:23:12;4.40;;;2.80;;
5608;SDS011;2826;51.354;9.588;2022-12-29T01:25:39;4.50;;;2.47;;
5608;SDS011;2826;51.354;9.588;2022-12-29T01:28:06;4.57;;;2.40;;
5608;SDS011;2826;51.354;9.588;2022-12-29T01:30:34;2.30;;;2.00;;
5608;SDS011;2826;51.354;9.588;2022-12-29T01:33:01;2.40;;;2.13;;
5608;SDS011;2826;51.354;9.588;2022-12-29T01:35:28;3.30;;;2.30;;
5608;SDS011;2826;51.354;9.588;2022-12-29T01:37:57;2.47;;;2.20;;
5608;SDS011;2826;51.354;9.588;2022-12-29T01:40:25;3.47;;;2.47;;
5608;SDS011;2826;51.354;9.588;2022-12-29T01:42:52;13.70;;;2.60;;
5608;SDS011;2826;51.354;9.588;2022-12-29T01:45:19;5.53;;;2.23;;
5608;SDS011;2826;51.354;9.588;2022-12-29T01:47:47;2.83;;;2.20;;
5608;SDS011;2826;51.354;9.588;2022-12-29T01:50:16;3.50;;;2.57;;
5608;SDS011;2826;51.354;9.588;2022-12-29T01:52:50;5.37;;;2.97;;
5608;SDS011;2826;51.354;9.588;2022-12-29T01:55:22;2.40;;;2.10;;
5608;SDS011;2826;51.354;9.588;2022-12-29T01:57:52;3.10;;;2.30;;
5608;SDS011;2826;51.354;9.588;2022-12-29T02:00:22;3.33;;;2.60;;
5608;SDS011;2826;51.354;9.588;2022-12-29T02:02:50;3.13;;;2.20;;
5608;SDS011;2826;51.354;9.588;2022-12-29T02:05:21;5.03;;;1.90;;
5608;SDS011;2826;51.354;9.588;2022-12-29T02:07:52;2.50;;;2.10;;
5608;SDS011;2826;51.354;9.588;2022-12-29T02:10:19;3.37;;;2.50;;
5608;SDS011;2826;51.354;9.588;2022-12-29T02:12:49;4.97;;;2.20;;
5608;SDS011;2826;51.354;9.588;2022-12-29T02:15:17;2.87;;;2.30;;
5608;SDS011;2826;51.354;9.588;2022-12-29T02:17:53;2.53;;;2.30;;
5608;SDS011;2826;51.354;9.588;2022-12-29T02:20:37;4.00;;;2.37;;
5608;SDS011;2826;51.354;9.588;2022-12-29T02:23:29;4.67;;;2.50;;
5608;SDS011;2826;51.354;9.588;2022-12-29T02:26:15;3.00;;;2.40;;
5608;SDS011;2826;51.354;9.588;2022-12-29T02:28:55;3.27;;;2.00;;
5608;SDS011;2826;51.354;9.588;2022-12-29T02:31:43;2.63;;;2.30;;
5608;SDS011;2826;51.354;9.588;2022-12-29T02:34:20;6.20;;;2.50;;
5608;SDS011;2826;51.354;9.588;2022-12-29T02:37:00;2.30;;;2.10;;
5608;SDS011;2826;51.354;9.588;2022-12-29T02:39:35;2.83;;;2.23;;
5608;SDS011;2826;51.354;9.588;2022-12-29T02:42:08;2.33;;;2.13;;
5608;SDS011;2826;51.354;9.588;2022-12-29T02:44:43;3.10;;;2.37;;
5608;SDS011;2826;51.354;9.588;2022-12-29T02:47:23;3.40;;;2.00;;
5608;SDS011;2826;51.354;9.588;2022-12-29T02:49:56;2.60;;;2.33;;
5608;SDS011;2826;51.354;9.588;2022-12-29T02:52:28;2.60;;;2.40;;
5608;SDS011;2826;51.354;9.588;2022-12-29T02:54:58;12.70;;;2.43;;
5608;SDS011;2826;51.354;9.588;2022-12-29T02:57:28;13.13;;;2.20;;
5608;SDS011;2826;51.354;9.588;2022-12-29T02:59:57;4.50;;;2.03;;
5608;SDS011;2826;51.354;9.588;2022-12-29T03:02:33;3.23;;;2.27;;
5608;SDS011;2826;51.354;9.588;2022-12-29T03:05:22;4.40;;;2.20;;
5608;SDS011;2826;51.354;9.588;2022-12-29T03:08:02;2.60;;;2.10;;
5608;SDS011;2826;51.354;9.588;2022-12-29T03:10:37;5.50;;;2.43;;
5608;SDS011;2826;51.354;9.588;2022-12-29T03:13:13;4.73;;;1.80;;
5608;SDS011;2826;51.354;9.588;2022-12-29T03:16:07;3.73;;;2.30;;
5608;SDS011;2826;51.354;9.588;2022-12-29T03:18:44;3.90;;;1.80;;
5608;SDS011;2826;51.354;9.588;2022-12-29T03:21:19;3.03;;;1.67;;
5608;SDS011;2826;51.354;9.588;2022-12-29T03:24:16;7.50;;;1.90;;
5608;SDS011;2826;51.354;9.588;2022-12-29T03:26:47;3.23;;;1.90;;
5608;SDS011;2826;51.354;9.588;2022-12-29T03:29:18;1.97;;;1.87;;
5608;SDS011;2826;51.354;9.588;2022-12-29T03:31:48;1.70;;;1.60;;
5608;SDS011;2826;51.354;9.588;2022-12-29T03:34:17;1.90;;;1.70;;
5608;SDS011;2826;51.354;9.588;2022-12-29T03:36:48;1.30;;;1.20;;
5608;SDS011;2826;51.354;9.588;2022-12-29T03:39:19;1.43;;;1.20;;
5608;SDS011;2826;51.354;9.588;2022-12-29T03:41:48;2.43;;;1.77;;
5608;SDS011;2826;51.354;9.588;2022-12-29T03:44:21;1.50;;;1.40;;
5608;SDS011;2826;51.354;9.588;2022-12-29T03:46:59;1.80;;;1.70;;
5608;SDS011;2826;51.354;9.588;2022-12-29T03:49:27;3.13;;;1.67;;
5608;SDS011;2826;51.354;9.588;2022-12-29T03:51:54;2.57;;;1.67;;
5608;SDS011;2826;51.354;9.588;2022-12-29T03:54:23;1.40;;;1.30;;
5608;SDS011;2826;51.354;9.588;2022-12-29T03:56:49;1.60;;;1.50;;
5608;SDS011;2826;51.354;9.588;2022-12-29T03:59:27;2.50;;;1.80;;
5608;SDS011;2826;51.354;9.588;2022-12-29T04:01:54;2.87;;;1.50;;
5608;SDS011;2826;51.354;9.588;2022-12-29T04:04:21;2.40;;;1.60;;
5608;SDS011;2826;51.354;9.588;2022-12-29T04:06:49;1.53;;;1.37;;
5608;SDS011;2826;51.354;9.588;2022-12-29T04:09:16;2.83;;;1.70;;
5608;SDS011;2826;51.354;9.588;2022-12-29T04:11:46;1.53;;;1.43;;
5608;SDS011;2826;51.354;9.588;2022-12-29T04:14:13;2.00;;;1.50;;
5608;SDS011;2826;51.354;9.588;2022-12-29T04:16:40;2.43;;;2.03;;
5608;SDS011;2826;51.354;9.588;2022-12-29T04:19:07;2.80;;;1.47;;
5608;SDS011;2826;51.354;9.588;2022-12-29T04:21:35;1.63;;;1.40;;
5608;SDS011;2826;51.354;9.588;2022-12-29T04:24:05;1.87;;;1.60;;
5608;SDS011;2826;51.354;9.588;2022-12-29T04:26:35;3.90;;;1.63;;
5608;SDS011;2826;51.354;9.588;2022-12-29T04:29:19;1.43;;;1.33;;
5608;SDS011;2826;51.354;9.588;2022-12-29T04:32:21;1.80;;;1.70;;
5608;SDS011;2826;51.354;9.588;2022-12-29T04:34:51;4.67;;;1.37;;
5608;SDS011;2826;51.354;9.588;2022-12-29T04:37:18;1.80;;;1.33;;
5608;SDS011;2826;51.354;9.588;2022-12-29T04:39:46;1.83;;;1.60;;
5608;SDS011;2826;51.354;9.588;2022-12-29T04:42:14;2.10;;;1.47;;
5608;SDS011;2826;51.354;9.588;2022-12-29T04:44:42;6.50;;;2.27;;
5608;SDS011;2826;51.354;9.588;2022-12-29T04:47:13;1.40;;;1.30;;
5608;SDS011;2826;51.354;9.588;2022-12-29T04:49:46;1.80;;;1.70;;
5608;SDS011;2826;51.354;9.588;2022-12-29T04:52:24;2.43;;;1.40;;
5608;SDS011;2826;51.354;9.588;2022-12-29T04:54:54;2.93;;;1.73;;
5608;SDS011;2826;51.354;9.588;2022-12-29T04:57:22;1.50;;;1.40;;
5608;SDS011;2826;51.354;9.588;2022-12-29T04:59:53;1.87;;;1.40;;
5608;SDS011;2826;51.354;9.588;2022-12-29T05:02:21;1.97;;;1.30;;
5608;SDS011;2826;51.354;9.588;2022-12-29T05:04:49;1.63;;;1.50;;
5608;SDS011;2826;51.354;9.588;2022-12-29T05:07:17;3.43;;;1.47;;
5608;SDS011;2826;51.354;9.588;2022-12-29T05:09:44;5.10;;;1.47;;
5608;SDS011;2826;51.354;9.588;2022-12-29T05:12:13;2.43;;;1.70;;
5608;SDS011;2826;51.354;9.588;2022-12-29T05:14:49;2.70;;;1.50;;
5608;SDS011;2826;51.354;9.588;2022-12-29T05:17:17;1.17;;;1.07;;
5608;SDS011;2826;51.354;9.588;2022-12-29T05:19:44;1.80;;;1.20;;
5608;SDS011;2826;51.354;9.588;2022-12-29T05:22:11;1.23;;;1.13;;
5608;SDS011;2826;51.354;9.588;2022-12-29T05:24:38;1.50;;;1.40;;
5608;SDS011;2826;51.354;9.588;2022-12-29T05:27:05;1.87;;;1.30;;
5608;SDS011;2826;51.354;9.588;2022-12-29T05:29:49;1.97;;;1.50;;
5608;SDS011;2826;51.354;9.588;2022-12-29T05:32:16;1.33;;;1.23;;
5608;SDS011;2826;51.354;9.588;2022-12-29T05:34:43;2.10;;;1.70;;
5608;SDS011;2826;51.354;9.588;2022-12-29T05:37:10;2.20;;;1.30;;
5608;SDS011;2826;51.354;9.588;2022-12-29T05:39:39;1.60;;;1.50;;
5608;SDS011;2826;51.354;9.588;2022-12-29T05:42:07;2.50;;;1.40;;
5608;SDS011;2826;51.354;9.588;2022-12-29T05:44:53;1.73;;;1.40;;
5608;SDS011;2826;51.354;9.588;2022-12-29T05:47:38;1.20;;;1.10;;
5608;SDS011;2826;51.354;9.588;2022-12-29T05:50:25;1.27;;;0.97;;
5608;SDS011;2826;51.354;9.588;2022-12-29T05:53:13;2.70;;;1.50;;
5608;SDS011;2826;51.354;9.588;2022-12-29T05:55:42;1.13;;;1.03;;
5608;SDS011;2826;51.354;9.588;2022-12-29T05:58:09;1.60;;;1.47;;
5608;SDS011;2826;51.354;9.588;2022-12-29T06:00:37;1.40;;;1.30;;
5608;SDS011;2826;51.354;9.588;2022-12-29T06:03:04;3.23;;;1.30;;
5608;SDS011;2826;51.354;9.588;2022-12-29T06:05:31;1.17;;;1.07;;
5608;SDS011;2826;51.354;9.588;2022-12-29T06:07:58;2.03;;;1.40;;
5608;SDS011;2826;51.354;9.588;2022-12-29T06:10:25;1.73;;;1.60;;
5608;SDS011;2826;51.354;9.588;2022-12-29T06:12:57;3.70;;;1.50;;
5608;SDS011;2826;51.354;9.588;2022-12-29T06:15:24;1.67;;;1.30;;
5608;SDS011;2826;51.354;9.588;2022-12-29T06:17:54;1.47;;;1.37;;
5608;SDS011;2826;51.354;9.588;2022-12-29T06:20:21;1.33;;;1.10;;
5608;SDS011;2826;51.354;9.588;2022-12-29T06:22:48;4.57;;;1.27;;
5608;SDS011;2826;51.354;9.588;2022-12-29T06:25:16;1.30;;;1.10;;
5608;SDS011;2826;51.354;9.588;2022-12-29T06:27:44;3.00;;;1.30;;
5608;SDS011;2826;51.354;9.588;2022-12-29T06:30:11;4.37;;;1.60;;
5608;SDS011;2826;51.354;9.588;2022-12-29T06:32:40;1.67;;;1.50;;
5608;SDS011;2826;51.354;9.588;2022-12-29T06:35:13;1.17;;;1.07;;
5608;SDS011;2826;51.354;9.588;2022-12-29T06:37:49;5.33;;;1.67;;
5608;SDS011;2826;51.354;9.588;2022-12-29T06:40:16;2.40;;;1.43;;
5608;SDS011;2826;51.354;9.588;2022-12-29T06:43:07;1.73;;;1.53;;
5608;SDS011;2826;51.354;9.588;2022-12-29T06:45:58;1.20;;;1.10;;
5608;SDS011;2826;51.354;9.588;2022-12-29T06:48:24;1.97;;;1.30;;
5608;SDS011;2826;51.354;9.588;2022-12-29T06:50:53;2.57;;;1.80;;
5608;SDS011;2826;51.354;9.588;2022-12-29T06:53:19;4.47;;;2.40;;
5608;SDS011;2826;51.354;9.588;2022-12-29T06:55:46;1.50;;;1.40;;
5608;SDS011;2826;51.354;9.588;2022-12-29T06:58:13;2.23;;;1.90;;
5608;SDS011;2826;51.354;9.588;2022-12-29T07:00:39;7.30;;;1.93;;
5608;SDS011;2826;51.354;9.588;2022-12-29T07:03:06;3.20;;;2.20;;
5608;SDS011;2826;51.354;9.588;2022-12-29T07:05:33;3.03;;;1.97;;
5608;SDS011;2826;51.354;9.588;2022-12-29T07:08:01;2.20;;;2.00;;
5608;SDS011;2826;51.354;9.588;2022-12-29T07:10:28;2.70;;;1.90;;
5608;SDS011;2826;51.354;9.588;2022-12-29T07:12:55;3.70;;;2.50;;
5608;SDS011;2826;51.354;9.588;2022-12-29T07:15:21;3.10;;;1.67;;
5608;SDS011;2826;51.354;9.588;2022-12-29T07:17:48;2.60;;;2.00;;
5608;SDS011;2826;51.354;9.588;2022-12-29T07:20:15;3.60;;;2.23;;
5608;SDS011;2826;51.354;9.588;2022-12-29T07:22:43;5.47;;;2.90;;
5608;SDS011;2826;51.354;9.588;2022-12-29T07:25:10;2.30;;;2.10;;
5608;SDS011;2826;51.354;9.588;2022-12-29T07:27:37;9.00;;;2.33;;
5608;SDS011;2826;51.354;9.588;2022-12-29T07:30:04;3.57;;;2.63;;
5608;SDS011;2826;51.354;9.588;2022-12-29T07:32:32;3.77;;;2.60;;
5608;SDS011;2826;51.354;9.588;2022-12-29T07:34:59;4.60;;;2.13;;
5608;SDS011;2826;51.354;9.588;2022-12-29T07:37:26;2.97;;;2.20;;
5608;SDS011;2826;51.354;9.588;2022-12-29T07:39:52;4.70;;;2.30;;
5608;SDS011;2826;51.354;9.588;2022-12-29T07:42:20;3.33;;;2.40;;
5608;SDS011;2826;51.354;9.588;2022-12-29T07:44:51;3.50;;;2.63;;
5608;SDS011;2826;51.354;9.588;2022-12-29T07:47:23;2.47;;;2.10;;
5608;SDS011;2826;51.354;9.588;2022-12-29T07:49:50;2.87;;;2.30;;
5608;SDS011;2826;51.354;9.588;2022-12-29T07:52:17;2.60;;;1.67;;
5608;SDS011;2826;51.354;9.588;2022-12-29T07:54:43;6.90;;;2.63;;
5608;SDS011;2826;51.354;9.588;2022-12-29T07:57:10;5.20;;;2.10;;
5608;SDS011;2826;51.354;9.588;2022-12-29T07:59:38;5.90;;;2.80;;
5608;SDS011;2826;51.354;9.588;2022-12-29T08:02:05;5.47;;;2.67;;
5608;SDS011;2826;51.354;9.588;2022-12-29T08:04:32;4.67;;;3.37;;
5608;SDS011;2826;51.354;9.588;2022-12-29T08:06:59;3.80;;;2.40;;
5608;SDS011;2826;51.354;9.588;2022-12-29T08:09:26;9.80;;;3.40;;
5608;SDS011;2826;51.354;9.588;2022-12-29T08:11:53;2.60;;;2.40;;
5608;SDS011;2826;51.354;9.588;2022-12-29T08:14:20;5.70;;;2.10;;
5608;SDS011;2826;51.354;9.588;2022-12-29T08:16:48;2.53;;;2.33;;
5608;SDS011;2826;51.354;9.588;2022-12-29T08:19:15;2.97;;;2.37;;
5608;SDS011;2826;51.354;9.588;2022-12-29T08:21:41;3.07;;;2.57;;
5608;SDS011;2826;51.354;9.588;2022-12-29T08:24:08;4.17;;;2.37;;
5608;SDS011;2826;51.354;9.588;2022-12-29T08:26:35;2.63;;;2.07;;
5608;SDS011;2826;51.354;9.588;2022-12-29T08:29:02;3.43;;;2.37;;
5608;SDS011;2826;51.354;9.588;2022-12-29T08:31:29;5.57;;;2.30;;
5608;SDS011;2826;51.354;9.588;2022-12-29T08:33:57;4.70;;;2.07;;
5608;SDS011;2826;51.354;9.588;2022-12-29T08:36:25;5.30;;;1.83;;
5608;SDS011;2826;51.354;9.588;2022-12-29T08:38:52;4.57;;;2.37;;
5608;SDS011;2826;51.354;9.588;2022-12-29T08:41:19;4.13;;;1.90;;
5608;SDS011;2826;51.354;9.588;2022-12-29T08:43:46;8.03;;;2.40;;
5608;SDS011;2826;51.354;9.588;2022-12-29T08:46:13;2.77;;;2.37;;
5608;SDS011;2826;51.354;9.588;2022-12-29T08:48:40;3.80;;;1.53;;
5608;SDS011;2826;51.354;9.588;2022-12-29T08:51:08;6.57;;;2.57;;
5608;SDS011;2826;51.354;9.588;2022-12-29T08:53:35;5.13;;;2.07;;
5608;SDS011;2826;51.354;9.588;2022-12-29T08:56:02;2.53;;;2.33;;
5608;SDS011;2826;51.354;9.588;2022-12-29T08:58:37;2.87;;;2.00;;
5608;SDS011;2826;51.354;9.588;2022-12-29T09:01:07;4.30;;;2.43;;
5608;SDS011;2826;51.354;9.588;2022-12-29T09:03:36;3.60;;;2.10;;
5608;SDS011;2826;51.354;9.588;2022-12-29T09:06:14;3.53;;;1.60;;
5608;SDS011;2826;51.354;9.588;2022-12-29T09:08:42;4.93;;;1.57;;
5608;SDS011;2826;51.354;9.588;2022-12-29T09:11:10;5.50;;;1.30;;
5608;SDS011;2826;51.354;9.588;2022-12-29T09:13:39;1.30;;;1.20;;
5608;SDS011;2826;51.354;9.588;2022-12-29T09:16:06;6.00;;;1.67;;
5608;SDS011;2826;51.354;9.588;2022-12-29T09:18:33;1.10;;;1.00;;
5608;SDS011;2826;51.354;9.588;2022-12-29T09:21:01;2.80;;;1.10;;
5608;SDS011;2826;51.354;9.588;2022-12-29T09:23:32;1.10;;;1.00;;
5608;SDS011;2826;51.354;9.588;2022-12-29T09:25:59;1.33;;;0.83;;
5608;SDS011;2826;51.354;9.588;2022-12-29T09:28:26;1.27;;;1.17;;
5608;SDS011;2826;51.354;9.588;2022-12-29T09:30:54;8.63;;;1.53;;
5608;SDS011;2826;51.354;9.588;2022-12-29T09:33:21;1.97;;;1.50;;
5608;SDS011;2826;51.354;9.588;2022-12-29T09:35:50;3.80;;;1.90;;
5608;SDS011;2826;51.354;9.588;2022-12-29T09:38:18;1.80;;;1.70;;
5608;SDS011;2826;51.354;9.588;2022-12-29T09:40:49;2.27;;;1.77;;
5608;SDS011;2826;51.354;9.588;2022-12-29T09:43:24;5.83;;;1.60;;
5608;SDS011;2826;51.354;9.588;2022-12-29T09:46:08;2.80;;;1.90;;
5608;SDS011;2826;51.354;9.588;2022-12-29T09:48:43;6.63;;;2.10;;
5608;SDS011;2826;51.354;9.588;2022-12-29T09:51:15;2.00;;;1.43;;
5608;SDS011;2826;51.354;9.588;2022-12-29T09:53:48;3.13;;;1.67;;
5608;SDS011;2826;51.354;9.588;2022-12-29T09:56:21;4.90;;;1.60;;
5608;SDS011;2826;51.354;9.588;2022-12-29T09:58:50;1.63;;;1.53;;
5608;SDS011;2826;51.354;9.588;2022-12-29T10:01:23;1.67;;;1.30;;
5608;SDS011;2826;51.354;9.588;2022-12-29T10:03:57;1.70;;;1.40;;
5608;SDS011;2826;51.354;9.588;2022-12-29T10:06:31;1.43;;;1.10;;
5608;SDS011;2826;51.354;9.588;2022-12-29T10:09:02;1.43;;;1.10;;
5608;SDS011;2826;51.354;9.588;2022-12-29T10:11:45;1.77;;;1.40;;
5608;SDS011;2826;51.354;9.588;2022-12-29T10:14:28;2.80;;;1.47;;
5608;SDS011;2826;51.354;9.588;2022-12-29T10:17:08;1.43;;;1.33;;
5608;SDS011;2826;51.354;9.588;2022-12-29T10:19:49;1.77;;;1.57;;
5608;SDS011;2826;51.354;9.588;2022-12-29T10:22:31;1.60;;;1.50;;
5608;SDS011;2826;51.354;9.588;2022-12-29T10:25:08;2.20;;;1.70;;
5608;SDS011;2826;51.354;9.588;2022-12-29T10:27:42;4.37;;;1.77;;
5608;SDS011;2826;51.354;9.588;2022-12-29T10:30:12;2.93;;;1.70;;
5608;SDS011;2826;51.354;9.588;2022-12-29T10:32:40;2.97;;;1.80;;
5608;SDS011;2826;51.354;9.588;2022-12-29T10:35:12;3.30;;;1.50;;
5608;SDS011;2826;51.354;9.588;2022-12-29T10:37:45;2.40;;;1.50;;
5608;SDS011;2826;51.354;9.588;2022-12-29T10:40:19;1.90;;;1.40;;
5608;SDS011;2826;51.354;9.588;2022-12-29T10:42:54;1.73;;;1.20;;
5608;SDS011;2826;51.354;9.588;2022-12-29T10:45:23;1.50;;;1.40;;
5608;SDS011;2826;51.354;9.588;2022-12-29T10:47:55;3.30;;;1.40;;
5608;SDS011;2826;51.354;9.588;2022-12-29T10:50:25;2.03;;;1.20;;
5608;SDS011;2826;51.354;9.588;2022-12-29T10:52:54;1.50;;;1.30;;
5608;SDS011;2826;51.354;9.588;2022-12-29T10:55:25;1.63;;;1.50;;
5608;SDS011;2826;51.354;9.588;2022-12-29T10:57:56;1.77;;;1.63;;
5608;SDS011;2826;51.354;9.588;2022-12-29T11:00:30;2.63;;;1.60;;
5608;SDS011;2826;51.354;9.588;2022-12-29T11:03:22;3.50;;;1.70;;
5608;SDS011;2826;51.354;9.588;2022-12-29T11:06:06;1.70;;;1.50;;
5608;SDS011;2826;51.354;9.588;2022-12-29T11:08:37;2.50;;;1.43;;
5608;SDS011;2826;51.354;9.588;2022-12-29T11:11:08;1.60;;;1.20;;
5608;SDS011;2826;51.354;9.588;2022-12-29T11:13:47;4.73;;;1.50;;
5608;SDS011;2826;51.354;9.588;2022-12-29T11:16:15;3.10;;;1.60;;
5608;SDS011;2826;51.354;9.588;2022-12-29T11:18:55;1.40;;;1.13;;
5608;SDS011;2826;51.354;9.588;2022-12-29T11:21:27;1.87;;;1.10;;
5608;SDS011;2826;51.354;9.588;2022-12-29T11:23:59;6.23;;;1.23;;
5608;SDS011;2826;51.354;9.588;2022-12-29T11:26:27;1.87;;;1.50;;
5608;SDS011;2826;51.354;9.588;2022-12-29T11:29:20;2.73;;;1.20;;
5608;SDS011;2826;51.354;9.588;2022-12-29T11:31:49;1.30;;;1.10;;
5608;SDS011;2826;51.354;9.588;2022-12-29T11:34:18;3.00;;;1.23;;
5608;SDS011;2826;51.354;9.588;2022-12-29T11:36:46;1.60;;;1.00;;
5608;SDS011;2826;51.354;9.588;2022-12-29T11:39:28;2.23;;;1.00;;
5608;SDS011;2826;51.354;9.588;2022-12-29T11:41:57;2.17;;;1.10;;
5608;SDS011;2826;51.354;9.588;2022-12-29T11:44:25;2.60;;;1.00;;
5608;SDS011;2826;51.354;9.588;2022-12-29T11:46:54;1.90;;;1.20;;
5608;SDS011;2826;51.354;9.588;2022-12-29T11:49:22;1.10;;;1.00;;
5608;SDS011;2826;51.354;9.588;2022-12-29T11:51:51;1.93;;;1.00;;
5608;SDS011;2826;51.354;9.588;2022-12-29T11:54:22;9.83;;;1.33;;
5608;SDS011;2826;51.354;9.588;2022-12-29T11:56:53;1.43;;;1.10;;
5608;SDS011;2826;51.354;9.588;2022-12-29T11:59:21;7.20;;;1.40;;
5608;SDS011;2826;51.354;9.588;2022-12-29T12:02:08;3.20;;;1.30;;
5608;SDS011;2826;51.354;9.588;2022-12-29T12:04:46;1.77;;;1.00;;
5608;SDS011;2826;51.354;9.588;2022-12-29T12:07:17;2.00;;;1.10;;
5608;SDS011;2826;51.354;9.588;2022-12-29T12:09:48;3.13;;;1.20;;
5608;SDS011;2826;51.354;9.588;2022-12-29T12:12:22;4.20;;;1.10;;
5608;SDS011;2826;51.354;9.588;2022-12-29T12:14:53;6.50;;;1.30;;
5608;SDS011;2826;51.354;9.588;2022-12-29T12:17:51;1.63;;;0.80;;
5608;SDS011;2826;51.354;9.588;2022-12-29T12:20:22;4.43;;;1.17;;
5608;SDS011;2826;51.354;9.588;2022-12-29T12:22:58;4.20;;;1.00;;
5608;SDS011;2826;51.354;9.588;2022-12-29T12:25:34;6.50;;;1.17;;
5608;SDS011;2826;51.354;9.588;2022-12-29T12:28:09;2.73;;;1.13;;
5608;SDS011;2826;51.354;9.588;2022-12-29T12:30:45;3.30;;;1.10;;
5608;SDS011;2826;51.354;9.588;2022-12-29T12:33:16;6.77;;;1.23;;
5608;SDS011;2826;51.354;9.588;2022-12-29T12:35:52;5.10;;;1.47;;
5608;SDS011;2826;51.354;9.588;2022-12-29T12:38:31;3.30;;;1.17;;
5608;SDS011;2826;51.354;9.588;2022-12-29T12:41:10;6.67;;;1.10;;
5608;SDS011;2826;51.354;9.588;2022-12-29T12:43:41;2.70;;;1.20;;
5608;SDS011;2826;51.354;9.588;2022-12-29T12:46:29;3.57;;;1.10;;
5608;SDS011;2826;51.354;9.588;2022-12-29T12:49:20;2.93;;;1.70;;
5608;SDS011;2826;51.354;9.588;2022-12-29T12:51:59;11.50;;;1.30;;
5608;SDS011;2826;51.354;9.588;2022-12-29T12:54:39;4.43;;;1.60;;
5608;SDS011;2826;51.354;9.588;2022-12-29T12:57:22;8.13;;;1.47;;
5608;SDS011;2826;51.354;9.588;2022-12-29T13:00:00;2.10;;;1.20;;
5608;SDS011;2826;51.354;9.588;2022-12-29T13:02:43;4.60;;;1.20;;
5608;SDS011;2826;51.354;9.588;2022-12-29T13:05:21;2.97;;;1.20;;
5608;SDS011;2826;51.354;9.588;2022-12-29T13:07:58;4.40;;;2.07;;
5608;SDS011;2826;51.354;9.588;2022-12-29T13:10:47;6.40;;;1.80;;
5608;SDS011;2826;51.354;9.588;2022-12-29T13:13:32;2.67;;;1.37;;
5608;SDS011;2826;51.354;9.588;2022-12-29T13:16:11;2.50;;;1.00;;
5608;SDS011;2826;51.354;9.588;2022-12-29T13:18:46;6.30;;;1.80;;
5608;SDS011;2826;51.354;9.588;2022-12-29T13:21:24;2.37;;;1.23;;
5608;SDS011;2826;51.354;9.588;2022-12-29T13:24:06;4.03;;;1.60;;
5608;SDS011;2826;51.354;9.588;2022-12-29T13:26:42;5.80;;;1.50;;
5608;SDS011;2826;51.354;9.588;2022-12-29T13:29:15;3.23;;;1.17;;
5608;SDS011;2826;51.354;9.588;2022-12-29T13:31:48;1.13;;;0.93;;
5608;SDS011;2826;51.354;9.588;2022-12-29T13:34:25;2.20;;;1.43;;
5608;SDS011;2826;51.354;9.588;2022-12-29T13:37:03;2.33;;;1.20;;
5608;SDS011;2826;51.354;9.588;2022-12-29T13:39:36;1.10;;;1.00;;
5608;SDS011;2826;51.354;9.588;2022-12-29T13:42:05;3.33;;;1.23;;
5608;SDS011;2826;51.354;9.588;2022-12-29T13:44:34;3.13;;;1.50;;
5608;SDS011;2826;51.354;9.588;2022-12-29T13:47:18;1.53;;;1.00;;
5608;SDS011;2826;51.354;9.588;2022-12-29T13:49:54;3.83;;;2.47;;
5608;SDS011;2826;51.354;9.588;2022-12-29T13:52:25;3.60;;;1.20;;
5608;SDS011;2826;51.354;9.588;2022-12-29T13:55:00;3.67;;;1.20;;
5608;SDS011;2826;51.354;9.588;2022-12-29T13:57:36;3.00;;;1.30;;
5608;SDS011;2826;51.354;9.588;2022-12-29T14:00:12;2.10;;;1.60;;
5608;SDS011;2826;51.354;9.588;2022-12-29T14:02:44;4.33;;;1.27;;
5608;SDS011;2826;51.354;9.588;2022-12-29T14:05:28;1.90;;;1.13;;
5608;SDS011;2826;51.354;9.588;2022-12-29T14:07:57;4.27;;;1.33;;
5608;SDS011;2826;51.354;9.588;2022-12-29T14:10:26;2.73;;;1.33;;
5608;SDS011;2826;51.354;9.588;2022-12-29T14:12:59;3.10;;;1.80;;
5608;SDS011;2826;51.354;9.588;2022-12-29T14:15:29;2.77;;;1.40;;
5608;SDS011;2826;51.354;9.588;2022-12-29T14:18:00;1.70;;;1.10;;
5608;SDS011;2826;51.354;9.588;2022-12-29T14:20:31;3.33;;;1.47;;
5608;SDS011;2826;51.354;9.588;2022-12-29T14:23:00;2.30;;;1.60;;
5608;SDS011;2826;51.354;9.588;2022-12-29T14:25:57;1.93;;;1.10;;
5608;SDS011;2826;51.354;9.588;2022-12-29T14:28:26;3.77;;;1.47;;
5608;SDS011;2826;51.354;9.588;2022-12-29T14:30:54;2.73;;;1.13;;
5608;SDS011;2826;51.354;9.588;2022-12-29T14:33:22;3.87;;;1.50;;
5608;SDS011;2826;51.354;9.588;2022-12-29T14:35:53;2.60;;;2.00;;
5608;SDS011;2826;51.354;9.588;2022-12-29T14:38:25;7.40;;;1.40;;
5608;SDS011;2826;51.354;9.588;2022-12-29T14:43:54;3.30;;;1.60;;
5608;SDS011;2826;51.354;9.588;2022-12-29T14:46:24;5.03;;;2.70;;
5608;SDS011;2826;51.354;9.588;2022-12-29T14:48:55;3.33;;;1.80;;
5608;SDS011;2826;51.354;9.588;2022-12-29T14:51:31;4.40;;;1.80;;
5608;SDS011;2826;51.354;9.588;2022-12-29T14:57:02;4.97;;;2.80;;
5608;SDS011;2826;51.354;9.588;2022-12-29T14:59:31;5.13;;;2.80;;
5608;SDS011;2826;51.354;9.588;2022-12-29T15:02:01;6.13;;;3.27;;
5608;SDS011;2826;51.354;9.588;2022-12-29T15:04:38;3.13;;;1.20;;
5608;SDS011;2826;51.354;9.588;2022-12-29T15:07:08;4.50;;;1.80;;
5608;SDS011;2826;51.354;9.588;2022-12-29T15:09:37;2.63;;;1.60;;
5608;SDS011;2826;51.354;9.588;2022-12-29T15:12:19;11.77;;;2.03;;
5608;SDS011;2826;51.354;9.588;2022-12-29T15:14:49;7.90;;;2.73;;
5608;SDS011;2826;51.354;9.588;2022-12-29T15:17:22;3.73;;;1.50;;
5608;SDS011;2826;51.354;9.588;2022-12-29T15:19:51;2.90;;;1.57;;
5608;SDS011;2826;51.354;9.588;2022-12-29T15:22:20;5.23;;;2.77;;
5608;SDS011;2826;51.354;9.588;2022-12-29T15:24:47;6.40;;;2.03;;
5608;SDS011;2826;51.354;9.588;2022-12-29T15:27:19;6.10;;;2.13;;
5608;SDS011;2826;51.354;9.588;2022-12-29T15:29:47;5.90;;;2.30;;
5608;SDS011;2826;51.354;9.588;2022-12-29T15:32:19;4.90;;;1.87;;
5608;SDS011;2826;51.354;9.588;2022-12-29T15:34:48;9.40;;;1.90;;
5608;SDS011;2826;51.354;9.588;2022-12-29T15:37:17;6.57;;;2.03;;
5608;SDS011;2826;51.354;9.588;2022-12-29T15:39:47;3.67;;;1.50;;
5608;SDS011;2826;51.354;9.588;2022-12-29T15:42:21;8.20;;;2.33;;
5608;SDS011;2826;51.354;9.588;2022-12-29T15:44:55;4.80;;;1.90;;
5608;SDS011;2826;51.354;9.588;2022-12-29T15:47:24;8.10;;;3.20;;
5608;SDS011;2826;51.354;9.588;2022-12-29T15:49:56;3.93;;;2.10;;
5608;SDS011;2826;51.354;9.588;2022-12-29T15:52:28;5.13;;;1.80;;
5608;SDS011;2826;51.354;9.588;2022-12-29T15:54:55;3.53;;;1.70;;